Time;durP1;ratioP1;P1;durP2;ratioP2;P2;SDS_P1;SDS_P2;PMS_P1;PMS_P2;Temp;Humidity;BMP_temperature;BMP_pressure;BME280_temperature;BME280_humidity;BME280_pressure;Samples;Min_cycle;Max_cycle;Signal;HPM_P1;HPM_P2
2023/01/07 00:01:30;;;;;;;27.50;18.27;;;11.60;99.90;;;;;;5110458;28;20726;-70
2023/01/07 00:03:59;;;;;;;26.90;18.43;;;11.60;99.90;;;;;;5110410;28;20215;-70
2023/01/07 00:06:32;;;;;;;23.90;17.03;;;11.60;99.90;;;;;;5106650;28;20199;-70
2023/01/07 00:08:59;;;;;;;25.40;17.50;;;11.60;99.90;;;;;;5110752;28;20282;-70
2023/01/07 00:11:35;;;;;;;26.57;18.67;;;11.60;99.90;;;;;;5085580;28;20203;-70
2023/01/07 00:14:04;;;;;;;25.13;17.37;;;11.60;99.90;;;;;;5107907;28;20683;-69
2023/01/07 00:16:33;;;;;;;25.30;16.90;;;11.60;99.90;;;;;;5109846;28;20257;-71
2023/01/07 00:19:02;;;;;;;25.17;17.33;;;11.50;99.90;;;;;;5107082;28;20322;-70
2023/01/07 00:21:30;;;;;;;23.47;16.10;;;11.50;99.90;;;;;;5092466;28;20199;-70
2023/01/07 00:24:03;;;;;;;25.47;17.37;;;11.60;99.90;;;;;;5110180;28;20242;-70
2023/01/07 00:26:32;;;;;;;22.73;16.07;;;11.60;99.90;;;;;;5110675;28;20248;-70
2023/01/07 00:28:59;;;;;;;25.77;16.70;;;11.60;99.90;;;;;;5110464;28;20281;-70
2023/01/07 00:31:29;;;;;;;23.13;15.70;;;11.50;99.90;;;;;;5092193;28;20211;-71
2023/01/07 00:36:32;;;;;;;25.43;16.17;;;11.50;99.90;;;;;;5110364;28;20282;-70
2023/01/07 00:39:08;;;;;;;26.03;17.37;;;11.60;99.90;;;;;;5107851;28;20222;-70
2023/01/07 00:41:36;;;;;;;24.77;16.43;;;11.60;99.90;;;;;;5108733;28;20195;-70
2023/01/07 00:44:03;;;;;;;24.80;16.27;;;11.50;99.90;;;;;;5110176;28;20281;-70
2023/01/07 00:46:31;;;;;;;23.23;16.53;;;11.50;99.90;;;;;;5109778;28;20651;-70
2023/01/07 00:48:58;;;;;;;24.80;16.30;;;11.50;99.90;;;;;;5110060;28;20211;-70
2023/01/07 00:51:25;;;;;;;25.60;16.30;;;11.60;99.90;;;;;;5110262;28;20282;-70
2023/01/07 00:53:51;;;;;;;25.37;16.73;;;11.60;99.90;;;;;;5092324;28;20239;-70
2023/01/07 00:56:18;;;;;;;23.80;16.60;;;11.60;99.90;;;;;;5109766;28;20193;-71
2023/01/07 00:58:45;;;;;;;21.70;16.00;;;11.60;99.90;;;;;;5109681;28;20262;-71
2023/01/07 01:01:12;;;;;;;25.67;15.83;;;11.60;99.90;;;;;;5110526;28;20243;-69
2023/01/07 01:03:40;;;;;;;25.77;15.73;;;11.60;99.90;;;;;;5106590;28;20290;-71
2023/01/07 01:06:13;;;;;;;24.00;16.23;;;11.60;99.90;;;;;;5108365;28;20207;-70
2023/01/07 01:08:45;;;;;;;22.77;15.60;;;11.70;99.90;;;;;;5110242;28;20257;-70
2023/01/07 01:11:14;;;;;;;24.73;16.67;;;11.60;99.90;;;;;;5096154;28;20593;-70
2023/01/07 01:13:42;;;;;;;21.97;16.03;;;11.60;99.90;;;;;;5114172;28;20238;-70
2023/01/07 01:16:16;;;;;;;26.70;15.73;;;11.60;99.90;;;;;;5114047;28;20234;-70
2023/01/07 01:18:44;;;;;;;25.90;16.10;;;11.60;99.90;;;;;;5113461;28;20291;-70
2023/01/07 01:21:12;;;;;;;23.13;15.90;;;11.50;99.90;;;;;;5113533;28;20237;-71
2023/01/07 01:23:39;;;;;;;25.47;15.50;;;11.80;99.90;;;;;;5113249;28;20248;-70
2023/01/07 01:26:09;;;;;;;24.07;14.60;;;11.50;99.90;;;;;;5111993;28;20197;-70
2023/01/07 01:28:36;;;;;;;22.03;14.97;;;11.50;99.90;;;;;;5113864;28;20234;-71
2023/01/07 01:31:04;;;;;;;21.73;14.37;;;11.50;99.90;;;;;;5113256;28;20234;-69
2023/01/07 01:33:31;;;;;;;24.43;14.93;;;11.40;99.90;;;;;;5114288;28;20203;-69
2023/01/07 01:35:57;;;;;;;23.23;16.03;;;11.40;99.90;;;;;;5090250;28;20198;-70
2023/01/07 01:38:24;;;;;;;23.73;14.27;;;11.40;99.90;;;;;;5113348;28;20226;-70
2023/01/07 01:40:51;;;;;;;25.97;15.03;;;11.40;99.90;;;;;;5113713;28;20270;-70
2023/01/07 01:43:39;;;;;;;25.63;15.30;;;11.40;99.90;;;;;;5111482;28;20231;-70
2023/01/07 01:46:14;;;;;;;23.33;14.57;;;11.40;99.90;;;;;;5090576;28;20535;-71
2023/01/07 01:48:55;;;;;;;20.40;14.40;;;11.30;99.90;;;;;;5095282;28;20198;-70
2023/01/07 01:51:25;;;;;;;21.63;13.40;;;11.30;99.90;;;;;;5109631;28;20769;-71
2023/01/07 01:53:54;;;;;;;22.00;13.73;;;11.30;99.90;;;;;;5093178;28;20239;-70
2023/01/07 01:56:32;;;;;;;24.13;14.33;;;11.30;99.90;;;;;;5110034;28;20230;-70
2023/01/07 01:59:04;;;;;;;24.03;14.23;;;11.30;99.90;;;;;;5113005;28;20254;-70
2023/01/07 02:01:34;;;;;;;22.30;13.87;;;11.30;99.90;;;;;;5092337;28;20276;-70
2023/01/07 02:04:09;;;;;;;17.27;12.40;;;11.30;99.90;;;;;;5111445;28;20203;-70
2023/01/07 02:06:42;;;;;;;23.67;14.47;;;11.30;99.90;;;;;;5113233;28;20186;-71
2023/01/07 02:09:12;;;;;;;20.03;12.93;;;11.30;99.90;;;;;;5112612;28;20231;-69
2023/01/07 02:12:11;;;;;;;18.27;12.60;;;11.30;99.90;;;;;;5113140;28;20287;-69
2023/01/07 02:14:47;;;;;;;20.07;12.60;;;11.30;99.90;;;;;;5101317;28;20306;-70
2023/01/07 02:17:33;;;;;;;17.33;12.77;;;11.30;99.90;;;;;;5108266;28;20298;-69
2023/01/07 02:20:31;;;;;;;20.20;13.43;;;11.30;99.90;;;;;;5111671;28;20199;-70
2023/01/07 02:23:11;;;;;;;19.73;12.43;;;11.30;99.90;;;;;;5089506;28;20302;-70
2023/01/07 02:26:18;;;;;;;17.40;11.37;;;11.30;99.90;;;;;;5108501;28;20314;-70
2023/01/07 02:28:58;;;;;;;19.50;12.50;;;11.30;99.90;;;;;;5106648;28;20287;-70
2023/01/07 02:31:48;;;;;;;18.60;12.30;;;11.30;99.90;;;;;;5112337;28;20690;-69
2023/01/07 02:34:27;;;;;;;21.53;13.23;;;11.30;99.90;;;;;;5112620;28;20203;-70
2023/01/07 02:37:34;;;;;;;16.40;11.70;;;11.40;99.90;;;;;;5092398;28;20199;-70
2023/01/07 02:40:33;;;;;;;16.07;11.20;;;11.40;99.90;;;;;;5112454;28;20326;-70
2023/01/07 02:43:20;;;;;;;19.20;12.03;;;11.40;99.90;;;;;;5111884;28;20227;-70
2023/01/07 02:46:11;;;;;;;17.57;11.60;;;11.40;99.90;;;;;;5110258;28;20207;-70
2023/01/07 02:48:39;;;;;;;16.97;11.77;;;11.40;99.90;;;;;;5109373;28;20301;-70
2023/01/07 02:51:06;;;;;;;16.53;11.73;;;11.40;99.90;;;;;;5111905;28;20286;-71
2023/01/07 02:53:33;;;;;;;16.53;11.20;;;11.40;99.90;;;;;;5112044;28;20711;-71
2023/01/07 02:56:14;;;;;;;17.33;11.40;;;11.40;99.90;;;;;;5109301;28;20724;-71
2023/01/07 02:59:19;;;;;;;16.07;11.47;;;11.40;99.90;;;;;;5109974;28;20326;-70
2023/01/07 03:01:52;;;;;;;17.23;11.27;;;11.40;99.90;;;;;;5110280;28;20250;-71
2023/01/07 03:04:22;;;;;;;17.23;10.80;;;11.40;99.90;;;;;;5111951;28;20207;-71
2023/01/07 03:07:01;;;;;;;15.93;9.97;;;11.50;99.90;;;;;;5110653;28;20295;-70
2023/01/07 03:09:54;;;;;;;14.80;10.00;;;11.40;99.90;;;;;;5108774;28;20306;-71
2023/01/07 03:12:33;;;;;;;13.97;9.73;;;11.50;99.90;;;;;;5111808;28;20747;-70
2023/01/07 03:15:21;;;;;;;12.80;8.70;;;11.50;99.90;;;;;;5107899;28;20282;-70
2023/01/07 03:17:55;;;;;;;17.63;10.07;;;11.40;99.90;;;;;;5112084;28;20313;-70
2023/01/07 03:20:23;;;;;;;14.13;9.20;;;11.50;99.90;;;;;;5108026;28;20241;-71
2023/01/07 03:22:52;;;;;;;15.90;9.57;;;11.40;99.90;;;;;;5110477;28;20195;-71
2023/01/07 03:25:23;;;;;;;15.67;9.93;;;11.40;99.90;;;;;;5111621;28;20235;-71
2023/01/07 03:27:52;;;;;;;18.33;9.10;;;11.40;99.90;;;;;;5109305;28;20620;-71
2023/01/07 03:30:19;;;;;;;11.50;8.73;;;11.40;99.90;;;;;;5111321;28;20285;-71
2023/01/07 03:33:10;;;;;;;16.27;9.17;;;11.40;99.90;;;;;;5111191;28;20215;-70
2023/01/07 03:35:39;;;;;;;16.63;9.90;;;11.30;99.90;;;;;;5109012;28;20199;-72
2023/01/07 03:38:08;;;;;;;23.73;10.13;;;11.30;99.90;;;;;;5090178;28;20310;-70
2023/01/07 03:40:36;;;;;;;14.70;9.20;;;11.30;99.90;;;;;;5090234;28;20210;-70
2023/01/07 03:43:03;;;;;;;13.47;9.80;;;11.30;99.90;;;;;;5107132;28;20261;-70
2023/01/07 03:45:30;;;;;;;12.40;8.70;;;11.30;99.90;;;;;;5111502;28;20203;-70
2023/01/07 03:47:57;;;;;;;12.87;8.70;;;11.30;99.90;;;;;;5111160;28;20500;-70
2023/01/07 03:50:24;;;;;;;15.00;9.17;;;11.20;99.90;;;;;;5110989;28;20233;-70
2023/01/07 03:52:50;;;;;;;14.73;10.00;;;11.20;99.90;;;;;;5110827;28;20207;-71
2023/01/07 03:55:17;;;;;;;16.03;8.97;;;11.20;99.90;;;;;;5109685;28;20675;-70
2023/01/07 03:57:44;;;;;;;14.73;8.93;;;11.20;99.90;;;;;;5104517;28;20288;-70
2023/01/07 04:00:12;;;;;;;13.10;9.17;;;11.10;99.90;;;;;;5091901;28;20651;-70
2023/01/07 04:02:39;;;;;;;12.87;9.03;;;11.10;99.90;;;;;;5110715;28;20314;-70
2023/01/07 04:05:06;;;;;;;13.03;9.90;;;11.00;99.90;;;;;;5106632;28;20195;-70
2023/01/07 04:07:32;;;;;;;13.93;8.87;;;11.00;99.90;;;;;;5107213;28;20249;-71
2023/01/07 04:09:59;;;;;;;15.93;9.57;;;11.00;99.90;;;;;;5110438;28;20298;-71
2023/01/07 04:12:26;;;;;;;14.83;9.37;;;11.00;99.90;;;;;;5110976;28;20264;-71
2023/01/07 04:14:53;;;;;;;13.27;9.00;;;10.90;99.90;;;;;;5091827;28;20302;-71
2023/01/07 04:17:19;;;;;;;15.20;9.43;;;10.90;99.90;;;;;;5110272;28;20547;-71
2023/01/07 04:19:46;;;;;;;13.47;8.83;;;10.90;99.90;;;;;;5109763;28;20577;-71
2023/01/07 04:22:13;;;;;;;15.47;9.30;;;10.90;99.90;;;;;;5110418;28;20206;-70
2023/01/07 04:24:40;;;;;;;17.30;9.07;;;10.90;99.90;;;;;;5110310;28;20209;-69
2023/01/07 04:27:06;;;;;;;15.57;9.13;;;10.80;99.90;;;;;;5110402;28;20203;-71
2023/01/07 04:29:33;;;;;;;11.83;8.83;;;10.80;99.90;;;;;;5110255;28;20285;-71
2023/01/07 04:32:00;;;;;;;15.80;8.90;;;10.80;99.90;;;;;;5107187;28;21677;-70
2023/01/07 04:34:26;;;;;;;14.37;8.50;;;10.80;99.90;;;;;;5110254;28;20238;-71
2023/01/07 04:36:53;;;;;;;13.87;8.37;;;10.70;99.90;;;;;;5109931;28;20558;-72
2023/01/07 04:39:20;;;;;;;11.37;8.03;;;10.70;99.90;;;;;;5103963;28;20313;-70
2023/01/07 04:41:47;;;;;;;14.27;8.17;;;10.70;99.90;;;;;;5109705;28;20675;-70
2023/01/07 04:44:16;;;;;;;15.13;8.50;;;10.60;99.90;;;;;;5110134;28;20258;-71
2023/01/07 04:46:43;;;;;;;11.37;8.27;;;10.60;99.90;;;;;;5110049;28;20250;-70
2023/01/07 04:49:10;;;;;;;12.47;8.37;;;10.60;99.90;;;;;;5110465;28;20246;-72
2023/01/07 04:51:37;;;;;;;10.43;7.97;;;10.60;99.90;;;;;;5110037;28;20239;-71
2023/01/07 04:54:04;;;;;;;12.40;8.23;;;10.60;99.90;;;;;;5110238;28;20297;-71
2023/01/07 04:56:31;;;;;;;12.57;8.53;;;10.60;99.90;;;;;;5109768;28;20199;-71
2023/01/07 04:58:58;;;;;;;12.00;7.87;;;10.60;99.90;;;;;;5085170;28;20230;-71
2023/01/07 05:01:24;;;;;;;11.27;8.33;;;10.60;99.90;;;;;;5109659;28;20306;-71
2023/01/07 05:03:51;;;;;;;10.57;8.10;;;10.60;99.90;;;;;;5110094;28;20207;-71
2023/01/07 05:06:18;;;;;;;9.73;7.50;;;10.60;99.90;;;;;;5107292;28;20291;-71
2023/01/07 05:08:45;;;;;;;14.17;7.47;;;10.60;99.90;;;;;;5110203;28;20207;-70
2023/01/07 05:11:12;;;;;;;12.40;7.57;;;10.60;99.90;;;;;;5109929;28;20245;-71
2023/01/07 05:13:39;;;;;;;9.77;7.97;;;10.60;99.90;;;;;;5105409;28;20570;-70
2023/01/07 05:16:06;;;;;;;11.10;7.53;;;10.60;99.90;;;;;;5105133;28;20314;-70
2023/01/07 05:18:33;;;;;;;11.10;7.13;;;10.60;99.90;;;;;;5109395;28;20261;-70
2023/01/07 05:20:59;;;;;;;11.37;7.47;;;10.60;99.90;;;;;;5109298;28;20238;-70
2023/01/07 05:23:26;;;;;;;9.23;7.13;;;10.60;99.90;;;;;;5109695;28;20250;-72
2023/01/07 05:25:53;;;;;;;11.33;7.10;;;10.50;99.90;;;;;;5109788;28;20271;-70
2023/01/07 05:28:20;;;;;;;9.07;6.40;;;10.50;99.90;;;;;;5109859;28;20677;-72
2023/01/07 05:30:46;;;;;;;9.43;7.13;;;10.50;99.90;;;;;;5090013;28;20636;-71
2023/01/07 05:33:13;;;;;;;9.87;6.90;;;10.50;99.90;;;;;;5109888;28;20223;-71
2023/01/07 05:35:40;;;;;;;14.17;7.00;;;10.50;99.90;;;;;;5108502;28;20535;-71
2023/01/07 05:38:07;;;;;;;12.50;7.10;;;10.50;99.90;;;;;;5108955;28;20736;-70
2023/01/07 05:40:33;;;;;;;9.67;6.40;;;10.50;99.90;;;;;;5090436;28;20212;-70
2023/01/07 05:43:00;;;;;;;10.30;7.07;;;10.40;99.90;;;;;;5086927;28;20229;-70
2023/01/07 05:45:27;;;;;;;10.87;6.73;;;10.40;99.90;;;;;;5107116;28;20203;-69
2023/01/07 05:47:53;;;;;;;10.17;7.07;;;10.50;99.90;;;;;;5109522;28;20225;-70
2023/01/07 05:50:20;;;;;;;10.33;6.80;;;10.40;99.90;;;;;;5109742;28;20245;-70
2023/01/07 05:52:49;;;;;;;11.03;6.40;;;10.40;99.90;;;;;;5112626;28;20281;-70
2023/01/07 05:55:15;;;;;;;8.57;6.07;;;10.40;99.90;;;;;;5113492;28;20211;-70
2023/01/07 05:57:42;;;;;;;10.47;6.43;;;10.40;99.90;;;;;;5112751;28;20293;-70
2023/01/07 06:00:09;;;;;;;8.17;5.83;;;10.40;99.90;;;;;;5113117;28;20317;-70
2023/01/07 06:02:36;;;;;;;9.07;6.53;;;10.40;99.90;;;;;;5112902;28;20231;-70
2023/01/07 06:05:03;;;;;;;10.20;6.57;;;10.40;99.90;;;;;;5095181;28;20211;-70
2023/01/07 06:07:30;;;;;;;8.53;5.50;;;10.50;99.90;;;;;;5113331;28;20226;-70
2023/01/07 06:09:57;;;;;;;10.50;5.83;;;10.50;99.90;;;;;;5094442;28;20242;-70
2023/01/07 06:12:23;;;;;;;8.00;5.17;;;10.50;99.90;;;;;;5112855;28;20238;-70
2023/01/07 06:14:50;;;;;;;7.90;5.80;;;10.60;99.90;;;;;;5111960;28;20205;-70
2023/01/07 06:17:17;;;;;;;8.77;5.17;;;10.60;99.90;;;;;;5088525;28;20938;-70
2023/01/07 06:19:44;;;;;;;17.47;5.27;;;10.60;99.90;;;;;;5107251;28;20237;-70
2023/01/07 06:22:10;;;;;;;7.17;4.70;;;10.60;99.90;;;;;;5107815;28;20269;-71
2023/01/07 06:24:37;;;;;;;8.60;5.60;;;10.70;99.90;;;;;;5112367;28;20247;-70
2023/01/07 06:27:04;;;;;;;5.30;4.37;;;10.70;99.90;;;;;;5110629;28;20636;-71
2023/01/07 06:29:30;;;;;;;9.07;5.17;;;10.70;99.90;;;;;;5113121;28;20616;-70
2023/01/07 06:31:57;;;;;;;7.30;4.10;;;10.70;99.90;;;;;;5108330;28;20215;-70
2023/01/07 06:34:24;;;;;;;10.23;4.67;;;10.80;99.90;;;;;;5092454;28;20690;-71
2023/01/07 06:36:51;;;;;;;5.10;4.60;;;10.80;99.90;;;;;;5112203;28;20231;-71
2023/01/07 06:39:20;;;;;;;6.83;4.50;;;10.70;99.90;;;;;;5110111;28;20229;-70
2023/01/07 06:41:47;;;;;;;6.67;4.40;;;10.80;99.90;;;;;;5108475;28;20286;-70
2023/01/07 06:44:14;;;;;;;7.23;4.77;;;10.80;99.90;;;;;;5112082;28;20235;-72
2023/01/07 06:46:40;;;;;;;8.40;4.50;;;10.80;99.90;;;;;;5111979;28;20238;-70
2023/01/07 06:49:07;;;;;;;5.70;4.40;;;10.80;99.90;;;;;;5112299;28;20433;-70
2023/01/07 06:51:34;;;;;;;7.87;4.73;;;10.80;99.90;;;;;;5106018;28;20281;-70
2023/01/07 06:54:01;;;;;;;5.37;4.33;;;10.80;99.90;;;;;;5110874;28;20724;-70
2023/01/07 06:56:27;;;;;;;7.93;4.40;;;10.80;99.90;;;;;;5112030;28;20325;-70
2023/01/07 06:58:54;;;;;;;7.07;4.33;;;10.70;99.90;;;;;;5105947;28;20227;-70
2023/01/07 07:01:21;;;;;;;6.30;4.30;;;10.70;99.90;;;;;;5111606;28;20322;-70
2023/01/07 07:03:47;;;;;;;5.97;3.77;;;10.70;99.90;;;;;;5110763;28;20240;-70
2023/01/07 07:06:14;;;;;;;6.70;4.30;;;10.70;99.90;;;;;;5101820;28;20655;-71
2023/01/07 07:08:41;;;;;;;5.63;4.00;;;10.70;99.90;;;;;;5095633;28;20219;-71
2023/01/07 07:11:07;;;;;;;6.23;3.77;;;10.70;99.90;;;;;;5104962;28;20200;-70
2023/01/07 07:13:34;;;;;;;5.33;3.90;;;10.70;99.90;;;;;;5102942;28;20278;-70
2023/01/07 07:16:01;;;;;;;5.70;3.80;;;10.70;99.90;;;;;;5093019;28;20736;-71
2023/01/07 07:18:29;;;;;;;5.83;4.03;;;10.70;99.90;;;;;;5109775;28;20290;-71
2023/01/07 07:20:57;;;;;;;4.67;3.70;;;10.70;99.90;;;;;;5106235;28;20594;-70
2023/01/07 07:23:27;;;;;;;5.37;4.00;;;10.70;99.90;;;;;;5108472;28;20723;-71
2023/01/07 07:25:53;;;;;;;5.40;3.57;;;10.70;99.90;;;;;;5104081;28;20199;-70
2023/01/07 07:28:20;;;;;;;5.03;3.50;;;10.70;99.90;;;;;;5085540;28;20570;-70
2023/01/07 07:30:47;;;;;;;4.53;3.03;;;10.70;99.90;;;;;;5103204;28;20257;-71
2023/01/07 07:33:17;;;;;;;3.63;2.93;;;10.70;99.90;;;;;;5088314;28;20262;-71
2023/01/07 07:35:47;;;;;;;5.90;3.53;;;10.70;99.90;;;;;;5104837;28;20260;-70
2023/01/07 07:38:16;;;;;;;6.23;3.10;;;10.70;99.90;;;;;;5080070;28;20199;-71
2023/01/07 07:40:43;;;;;;;8.40;2.80;;;10.80;99.90;;;;;;5092706;28;20865;-71
2023/01/07 07:43:16;;;;;;;5.20;3.50;;;10.70;99.90;;;;;;5090539;28;20658;-71
2023/01/07 07:45:43;;;;;;;4.67;2.97;;;10.80;99.90;;;;;;5110916;28;20207;-71
2023/01/07 07:48:13;;;;;;;4.97;3.07;;;10.80;99.90;;;;;;5111040;28;20253;-69
2023/01/07 07:50:40;;;;;;;4.80;2.53;;;10.80;99.90;;;;;;5110964;28;20211;-71
2023/01/07 07:53:10;;;;;;;5.43;2.80;;;10.80;99.90;;;;;;5107137;28;20188;-69
2023/01/07 07:55:38;;;;;;;4.63;2.37;;;10.80;99.90;;;;;;5111141;28;20290;-69
2023/01/07 07:58:05;;;;;;;6.37;2.63;;;10.80;99.90;;;;;;5110635;28;20746;-71
2023/01/07 08:00:32;;;;;;;6.47;2.77;;;10.80;99.90;;;;;;5111116;28;20649;-71
2023/01/07 08:03:00;;;;;;;3.00;2.53;;;10.90;99.90;;;;;;5109790;28;20699;-70
2023/01/07 08:05:27;;;;;;;5.17;2.63;;;10.90;99.90;;;;;;5086679;28;20598;-71
2023/01/07 08:07:54;;;;;;;3.53;2.60;;;10.90;99.90;;;;;;5105902;28;20222;-70
2023/01/07 08:10:22;;;;;;;3.87;2.47;;;10.90;99.90;;;;;;5106211;27;20268;-69
2023/01/07 08:12:49;;;;;;;3.90;2.23;;;10.90;99.90;;;;;;5090435;28;20246;-70
2023/01/07 08:15:16;;;;;;;3.57;2.17;;;11.00;99.90;;;;;;5105351;28;20286;-70
2023/01/07 08:17:43;;;;;;;4.80;2.10;;;11.00;99.90;;;;;;5105958;28;20247;-70
2023/01/07 08:20:11;;;;;;;3.00;2.13;;;11.00;99.90;;;;;;5104329;28;20254;-70
2023/01/07 08:22:38;;;;;;;4.10;2.23;;;11.10;99.90;;;;;;5107574;28;20187;-71
2023/01/07 08:25:05;;;;;;;2.20;2.00;;;11.00;99.90;;;;;;5105108;28;20196;-71
2023/01/07 08:27:32;;;;;;;4.43;2.30;;;11.10;99.90;;;;;;5106916;28;20720;-69
2023/01/07 08:29:58;;;;;;;4.13;2.00;;;11.10;99.90;;;;;;5109158;28;20281;-70
2023/01/07 08:32:25;;;;;;;3.03;2.00;;;11.10;99.90;;;;;;5106421;28;20678;-70
2023/01/07 08:34:52;;;;;;;3.97;2.27;;;11.10;99.90;;;;;;5103185;28;20206;-70
2023/01/07 08:37:18;;;;;;;3.37;2.03;;;11.10;99.90;;;;;;5108517;28;20199;-71
2023/01/07 08:39:47;;;;;;;2.97;2.07;;;11.10;99.90;;;;;;5103330;28;20238;-71
2023/01/07 08:42:16;;;;;;;2.53;2.13;;;11.20;99.90;;;;;;5103039;28;20205;-70
2023/01/07 08:44:43;;;;;;;2.10;1.90;;;11.20;99.90;;;;;;5105866;28;20260;-70
2023/01/07 08:47:09;;;;;;;3.70;1.80;;;11.20;99.90;;;;;;5107920;28;20203;-70
2023/01/07 08:49:39;;;;;;;2.00;1.70;;;11.10;99.90;;;;;;5102847;28;20662;-71
2023/01/07 08:52:06;;;;;;;2.30;1.90;;;11.20;99.90;;;;;;5102905;28;20548;-70
2023/01/07 08:54:32;;;;;;;3.03;1.77;;;11.30;99.90;;;;;;5099966;28;20191;-70
2023/01/07 08:56:59;;;;;;;3.30;2.20;;;11.30;99.90;;;;;;5104412;28;20195;-70
2023/01/07 08:59:26;;;;;;;2.60;2.03;;;11.30;99.90;;;;;;5101569;28;20258;-71
2023/01/07 09:01:52;;;;;;;3.33;1.80;;;11.40;99.90;;;;;;5101715;28;20302;-70
2023/01/07 09:04:19;;;;;;;2.93;1.80;;;11.40;99.90;;;;;;5102977;28;20223;-70
2023/01/07 09:06:46;;;;;;;4.17;1.93;;;11.40;99.90;;;;;;5103175;28;20282;-72
2023/01/07 09:09:15;;;;;;;3.00;1.97;;;11.40;99.90;;;;;;5108391;28;20238;-70
2023/01/07 09:11:42;;;;;;;2.17;1.67;;;11.50;99.90;;;;;;5105138;28;20199;-71
2023/01/07 09:14:10;;;;;;;2.83;2.00;;;11.50;99.90;;;;;;5086690;28;20191;-71
2023/01/07 09:16:37;;;;;;;2.10;1.90;;;11.50;99.90;;;;;;5103988;28;20674;-71
2023/01/07 09:19:03;;;;;;;3.43;1.97;;;11.60;99.90;;;;;;5105414;28;20210;-71
2023/01/07 09:21:30;;;;;;;4.73;2.20;;;11.60;99.90;;;;;;5100636;28;20258;-71
2023/01/07 09:23:57;;;;;;;3.37;1.80;;;11.60;99.90;;;;;;5104800;28;20215;-71
2023/01/07 09:26:23;;;;;;;5.70;2.10;;;11.60;99.90;;;;;;5088198;28;20234;-71
2023/01/07 09:28:50;;;;;;;7.83;2.50;;;11.60;99.90;;;;;;5108165;28;20630;-71
2023/01/07 09:31:17;;;;;;;6.60;2.20;;;11.60;99.90;;;;;;5107300;28;20246;-71
2023/01/07 09:33:44;;;;;;;2.47;1.90;;;11.60;99.90;;;;;;5111626;28;20210;-70
2023/01/07 09:36:10;;;;;;;2.57;2.20;;;11.80;99.90;;;;;;5112357;28;20316;-70
2023/01/07 09:38:37;;;;;;;3.87;2.00;;;11.60;99.90;;;;;;5109868;28;20672;-71
2023/01/07 09:41:13;;;;;;;1.83;1.70;;;11.70;99.90;;;;;;5111530;28;20305;-71
2023/01/07 09:43:43;;;;;;;3.30;2.13;;;11.70;99.90;;;;;;5110992;28;20222;-71
2023/01/07 09:46:28;;;;;;;4.17;2.07;;;11.80;99.90;;;;;;5109207;28;20342;-70
2023/01/07 09:49:00;;;;;;;4.07;2.30;;;11.80;99.90;;;;;;5112149;28;20203;-71
2023/01/07 09:51:34;;;;;;;2.33;2.00;;;11.80;99.90;;;;;;5111387;28;20376;-70
2023/01/07 09:54:02;;;;;;;1.90;1.70;;;11.80;99.90;;;;;;5109911;28;20199;-70
2023/01/07 09:56:34;;;;;;;2.07;1.83;;;11.80;99.90;;;;;;5091278;28;20300;-70
2023/01/07 09:59:03;;;;;;;1.67;1.57;;;11.90;99.90;;;;;;5107762;28;20210;-70
2023/01/07 10:01:43;;;;;;;2.47;2.17;;;11.90;99.90;;;;;;5090015;28;20273;-70
2023/01/07 10:04:35;;;;;;;2.30;1.77;;;11.90;99.90;;;;;;5107790;28;20197;-71
2023/01/07 10:07:29;;;;;;;4.30;2.07;;;11.90;99.90;;;;;;5102362;28;20345;-70
2023/01/07 10:10:01;;;;;;;2.47;1.93;;;11.90;99.90;;;;;;5104990;28;20659;-71
2023/01/07 10:12:42;;;;;;;3.10;1.80;;;11.90;99.90;;;;;;5108792;28;20205;-70
2023/01/07 10:15:36;;;;;;;3.00;2.27;;;12.00;99.90;;;;;;5091252;28;20187;-70
2023/01/07 10:18:23;;;;;;;1.80;1.70;;;12.00;99.90;;;;;;5106091;28;20215;-70
2023/01/07 10:21:04;;;;;;;3.37;2.17;;;12.00;99.90;;;;;;5107758;28;20337;-71
2023/01/07 10:23:39;;;;;;;3.37;2.33;;;12.10;99.90;;;;;;5106195;28;20199;-70
2023/01/07 10:26:17;;;;;;;3.30;2.00;;;12.10;99.90;;;;;;5106572;28;20199;-70
2023/01/07 10:28:50;;;;;;;4.27;1.90;;;12.10;99.90;;;;;;5105696;28;20195;-70
2023/01/07 10:31:25;;;;;;;2.60;1.90;;;12.20;99.90;;;;;;5104048;28;20223;-69
2023/01/07 10:33:56;;;;;;;2.00;1.70;;;12.20;99.90;;;;;;5104653;28;20648;-71
2023/01/07 10:36:31;;;;;;;2.43;1.77;;;12.20;99.90;;;;;;5108058;28;20199;-71
2023/01/07 10:39:28;;;;;;;2.63;1.87;;;12.20;99.90;;;;;;5109587;28;20202;-70
2023/01/07 10:42:11;;;;;;;2.67;2.07;;;12.20;99.90;;;;;;5111337;28;20222;-71
2023/01/07 10:44:52;;;;;;;4.33;1.70;;;12.20;99.90;;;;;;5112256;28;20734;-70
2023/01/07 10:47:31;;;;;;;3.30;2.17;;;12.20;99.90;;;;;;5109858;28;20254;-69
2023/01/07 10:50:07;;;;;;;2.27;1.70;;;12.20;99.90;;;;;;5111337;28;20630;-70
2023/01/07 10:53:03;;;;;;;2.77;1.60;;;12.30;99.90;;;;;;5111509;28;20701;-70
2023/01/07 10:55:43;;;;;;;1.53;1.43;;;12.30;99.90;;;;;;5106242;28;20192;-70
2023/01/07 10:58:11;;;;;;;6.90;1.93;;;12.30;99.90;;;;;;5106216;28;20234;-70
2023/01/07 11:00:38;;;;;;;1.50;1.40;;;12.30;99.90;;;;;;5111033;28;20226;-70
2023/01/07 11:03:22;;;;;;;1.60;1.50;;;12.30;99.90;;;;;;5112211;28;20221;-70
2023/01/07 11:05:56;;;;;;;4.70;1.90;;;12.30;99.90;;;;;;5106251;28;20211;-70
2023/01/07 11:08:39;;;;;;;2.90;1.50;;;12.30;99.90;;;;;;5104787;28;20501;-71
2023/01/07 11:11:14;;;;;;;1.37;1.20;;;12.40;99.90;;;;;;5106639;28;20290;-71
2023/01/07 11:13:50;;;;;;;2.43;1.43;;;12.40;99.90;;;;;;5089993;28;20234;-70
2023/01/07 11:16:23;;;;;;;2.80;1.40;;;12.50;99.90;;;;;;5106478;28;20215;-71
2023/01/07 11:19:01;;;;;;;1.93;1.47;;;12.40;99.90;;;;;;5109579;28;20241;-71
2023/01/07 11:21:47;;;;;;;1.77;1.33;;;12.40;99.90;;;;;;5105910;28;20254;-70
2023/01/07 11:24:32;;;;;;;1.70;1.60;;;12.30;99.90;;;;;;5105541;28;20231;-70
2023/01/07 11:27:19;;;;;;;2.23;1.30;;;12.30;99.90;;;;;;5090167;28;20640;-70
2023/01/07 11:30:03;;;;;;;2.17;1.67;;;12.30;99.90;;;;;;5088747;28;20234;-71
2023/01/07 11:32:39;;;;;;;2.20;1.43;;;12.20;99.90;;;;;;5109817;28;20302;-70
2023/01/07 11:35:21;;;;;;;2.37;1.40;;;12.20;99.90;;;;;;5104079;28;20195;-70
2023/01/07 11:37:49;;;;;;;1.93;1.43;;;12.30;99.90;;;;;;5110429;28;20804;-70
2023/01/07 11:40:23;;;;;;;1.53;1.43;;;12.20;99.90;;;;;;5092654;28;20261;-70
2023/01/07 11:42:54;;;;;;;2.37;1.30;;;12.20;99.90;;;;;;5109571;28;20261;-70
2023/01/07 11:45:25;;;;;;;1.73;1.57;;;12.20;99.90;;;;;;5106583;28;20226;-70
2023/01/07 11:48:03;;;;;;;2.70;1.57;;;12.30;99.90;;;;;;5110765;28;20219;-71
2023/01/07 11:50:51;;;;;;;2.30;1.40;;;12.30;99.90;;;;;;5109660;28;20257;-71
2023/01/07 11:53:18;;;;;;;4.73;1.77;;;12.30;99.90;;;;;;5109024;28;20634;-71
2023/01/07 11:55:55;;;;;;;3.33;1.57;;;12.30;99.90;;;;;;5107712;28;20227;-71
2023/01/07 11:58:24;;;;;;;2.10;1.47;;;12.30;99.90;;;;;;5106965;28;20561;-71
2023/01/07 12:01:06;;;;;;;2.13;1.50;;;12.30;99.90;;;;;;5087100;28;20617;-70
2023/01/07 12:03:35;;;;;;;1.30;1.20;;;12.40;99.90;;;;;;5101626;28;20211;-70
2023/01/07 12:06:10;;;;;;;2.07;1.87;;;12.40;99.90;;;;;;5105171;28;20248;-70
2023/01/07 12:08:48;;;;;;;2.97;1.57;;;12.50;99.90;;;;;;5083325;28;20196;-70
2023/01/07 12:11:15;;;;;;;1.63;1.20;;;12.50;99.90;;;;;;5100522;28;20205;-71
2023/01/07 12:13:51;;;;;;;1.93;1.40;;;12.50;99.90;;;;;;5100418;28;20466;-70
2023/01/07 12:16:26;;;;;;;1.73;1.60;;;12.50;99.90;;;;;;5086849;28;20223;-70
2023/01/07 12:19:02;;;;;;;1.83;1.73;;;12.50;99.90;;;;;;5103295;28;20195;-71
2023/01/07 12:21:47;;;;;;;2.00;1.40;;;12.40;99.90;;;;;;5101371;28;20313;-70
2023/01/07 12:24:42;;;;;;;1.40;1.30;;;12.40;99.90;;;;;;5103016;28;20245;-71
2023/01/07 12:27:18;;;;;;;1.60;1.50;;;12.40;99.90;;;;;;5104448;28;20667;-71
2023/01/07 12:30:21;;;;;;;1.87;1.37;;;12.40;99.90;;;;;;5105162;28;20336;-71
2023/01/07 12:33:26;;;;;;;2.77;1.40;;;12.40;99.90;;;;;;5104920;28;20287;-71
2023/01/07 12:35:57;;;;;;;2.00;1.50;;;12.40;99.90;;;;;;5106669;28;20313;-71
2023/01/07 12:38:41;;;;;;;2.83;1.50;;;12.30;99.90;;;;;;5109893;28;20291;-72
2023/01/07 12:41:18;;;;;;;2.57;1.60;;;12.40;99.90;;;;;;5105550;28;20695;-72
2023/01/07 12:44:09;;;;;;;2.50;1.50;;;12.40;99.90;;;;;;5107260;28;20265;-71
2023/01/07 12:46:45;;;;;;;2.77;1.70;;;12.40;99.90;;;;;;5101626;28;20446;-72
2023/01/07 12:49:20;;;;;;;2.00;1.57;;;12.30;99.90;;;;;;5102374;28;20730;-71
2023/01/07 12:52:03;;;;;;;1.70;1.40;;;12.30;99.90;;;;;;5104065;28;20305;-70
2023/01/07 12:54:39;;;;;;;2.87;1.80;;;12.30;99.90;;;;;;5105382;28;20191;-70
2023/01/07 12:57:15;;;;;;;2.17;1.50;;;12.30;99.90;;;;;;5104714;28;20559;-71
2023/01/07 13:00:00;;;;;;;1.70;1.60;;;12.30;99.90;;;;;;5104732;28;20199;-71
2023/01/07 13:03:00;;;;;;;1.93;1.60;;;12.30;99.90;;;;;;5105862;28;20256;-72
2023/01/07 13:05:36;;;;;;;2.63;1.50;;;12.30;99.90;;;;;;5106489;28;20678;-72
2023/01/07 13:08:34;;;;;;;1.87;1.67;;;12.20;99.90;;;;;;5091398;28;20233;-70